Time;durP1;ratioP1;P1;durP2;ratioP2;P2;SDS_P1;SDS_P2;PMS_P1;PMS_P2;Temp;Humidity;BMP_temperature;BMP_pressure;BME280_temperature;BME280_humidity;BME280_pressure;Samples;Min_cycle;Max_cycle;Signal;HPM_P1;HPM_P2
2023/08/02 00:01:48;;;;;;;6.88;2.85;;;;;;;15.20;100.00;100056.66;5095411;28;20028;-49
2023/08/02 00:04:14;;;;;;;11.27;3.50;;;;;;;15.18;100.00;100045.31;5100974;28;20108;-50
2023/08/02 00:06:39;;;;;;;10.73;3.30;;;;;;;15.16;100.00;100048.16;5096045;28;20374;-49
2023/08/02 00:09:04;;;;;;;10.40;3.42;;;;;;;15.13;100.00;100048.47;5098261;28;20016;-49
2023/08/02 00:11:30;;;;;;;11.02;3.53;;;;;;;15.12;100.00;100052.16;5095688;28;20024;-49
2023/08/02 00:13:55;;;;;;;8.23;2.97;;;;;;;15.11;100.00;100049.66;5099149;28;20417;-50
2023/08/02 00:16:20;;;;;;;8.57;2.97;;;;;;;15.03;100.00;100044.31;5099994;28;20031;-50
2023/08/02 00:18:46;;;;;;;8.98;2.83;;;;;;;15.02;100.00;100048.81;5095670;28;20056;-49
2023/08/02 00:21:11;;;;;;;10.05;3.17;;;;;;;14.99;100.00;100055.34;5098964;28;20031;-49
2023/08/02 00:23:36;;;;;;;7.05;3.08;;;;;;;14.97;100.00;100059.16;5096731;28;20456;-50
2023/08/02 00:26:02;;;;;;;7.60;3.50;;;;;;;14.93;100.00;100050.63;5095301;28;20426;-49
2023/08/02 00:28:27;;;;;;;8.48;3.17;;;;;;;14.91;100.00;100043.78;5098857;28;20115;-50
2023/08/02 00:30:52;;;;;;;10.63;3.33;;;;;;;14.88;100.00;100047.63;5096406;28;20036;-49
2023/08/02 00:33:18;;;;;;;6.50;3.08;;;;;;;14.84;100.00;100056.13;5099004;28;20028;-49
2023/08/02 00:35:44;;;;;;;6.85;3.42;;;;;;;14.86;100.00;100060.31;5097177;28;20043;-49
2023/08/02 00:38:10;;;;;;;9.65;3.10;;;;;;;14.87;100.00;100045.97;5095124;28;20035;-48
2023/08/02 00:40:35;;;;;;;6.55;2.90;;;;;;;14.86;100.00;100032.78;5087396;28;20027;-50
2023/08/02 00:43:00;;;;;;;8.13;3.13;;;;;;;14.86;100.00;100033.59;5095381;28;20036;-50
2023/08/02 00:45:26;;;;;;;7.43;2.85;;;;;;;14.89;100.00;100022.56;5098086;28;20062;-50
2023/08/02 00:47:51;;;;;;;6.93;2.90;;;;;;;14.91;100.00;100022.41;5096435;28;20025;-52
2023/08/02 00:50:16;;;;;;;10.05;3.30;;;;;;;14.92;100.00;100013.38;5088774;28;20053;-49
2023/08/02 00:52:42;;;;;;;7.35;3.13;;;;;;;14.90;100.00;100007.34;5099851;28;20029;-49
2023/08/02 00:55:07;;;;;;;8.23;3.13;;;;;;;14.91;100.00;100001.84;5097787;28;20023;-53
2023/08/02 00:57:33;;;;;;;5.20;3.35;;;;;;;14.90;100.00;99985.97;5100968;28;20043;-50
2023/08/02 00:59:58;;;;;;;5.97;2.83;;;;;;;14.93;100.00;99997.16;5090748;28;20036;-50
2023/08/02 01:02:24;;;;;;;5.38;2.90;;;;;;;14.94;100.00;99998.84;5069975;28;20028;-50
2023/08/02 01:04:50;;;;;;;6.60;3.08;;;;;;;14.94;100.00;99998.00;5093936;28;20119;-49
2023/08/02 01:07:15;;;;;;;9.50;3.20;;;;;;;14.97;100.00;99994.97;5097979;28;20145;-49
2023/08/02 01:09:47;;;;;;;8.30;3.10;;;;;;;14.99;100.00;99998.34;5097084;28;20401;-50
2023/08/02 01:12:14;;;;;;;5.72;2.97;;;;;;;14.99;100.00;99998.34;5100884;28;20079;-50
2023/08/02 01:14:41;;;;;;;8.25;2.92;;;;;;;14.98;100.00;99994.81;5101090;28;20047;-51
2023/08/02 01:17:08;;;;;;;6.68;3.38;;;;;;;15.02;100.00;100010.53;5098359;28;20058;-51
2023/08/02 01:19:33;;;;;;;8.38;3.53;;;;;;;15.04;100.00;100006.69;5097822;28;20040;-51
2023/08/02 01:21:59;;;;;;;6.93;3.40;;;;;;;15.03;100.00;99996.16;5097959;28;20432;-50
2023/08/02 01:24:32;;;;;;;8.30;3.10;;;;;;;15.05;100.00;99986.13;5097497;28;20123;-53
2023/08/02 01:27:00;;;;;;;5.88;2.90;;;;;;;15.06;100.00;99985.97;5095647;28;20389;-50
2023/08/02 01:29:28;;;;;;;10.48;3.63;;;;;;;15.02;100.00;99979.31;5104119;28;20042;-49
2023/08/02 01:31:57;;;;;;;7.97;3.38;;;;;;;15.08;100.00;99985.81;5102472;28;20688;-52
2023/08/02 01:34:23;;;;;;;10.50;3.80;;;;;;;15.12;100.00;99976.44;5102334;28;20031;-49
2023/08/02 01:36:48;;;;;;;12.00;3.40;;;;;;;15.12;100.00;99990.66;5102710;28;20043;-50
2023/08/02 01:39:14;;;;;;;10.77;3.28;;;;;;;15.13;100.00;99981.59;5103493;28;20393;-50
2023/08/02 01:41:40;;;;;;;6.63;3.17;;;;;;;15.15;100.00;99962.72;5104175;28;20056;-49
2023/08/02 01:44:05;;;;;;;6.78;2.95;;;;;;;15.16;100.00;99965.22;5102014;28;20022;-50
2023/08/02 01:46:30;;;;;;;8.27;3.33;;;;;;;15.18;100.00;99960.53;5086594;28;20434;-49
2023/08/02 01:48:56;;;;;;;8.75;3.67;;;;;;;15.18;100.00;99959.72;5098278;28;20024;-52
2023/08/02 01:51:21;;;;;;;6.47;2.92;;;;;;;15.18;100.00;99960.53;5095726;28;20023;-51
2023/08/02 01:53:49;;;;;;;8.40;2.85;;;;;;;15.20;100.00;99952.34;5101948;28;20036;-49
2023/08/02 01:56:14;;;;;;;10.13;3.45;;;;;;;15.20;100.00;99954.19;5097847;28;20389;-52
2023/08/02 01:58:39;;;;;;;11.60;3.55;;;;;;;15.18;100.00;99951.69;5099813;28;20110;-49
2023/08/02 02:01:04;;;;;;;6.55;3.38;;;;;;;15.17;100.00;99937.47;5097592;28;20024;-49
2023/08/02 02:03:30;;;;;;;11.90;3.70;;;;;;;15.21;100.00;99931.81;5097932;28;20023;-50
2023/08/02 02:05:55;;;;;;;9.93;3.60;;;;;;;15.18;100.00;99930.28;5097620;28;20034;-49
2023/08/02 02:08:21;;;;;;;7.65;3.47;;;;;;;15.15;100.00;99920.78;5099772;28;20028;-50
2023/08/02 02:10:51;;;;;;;10.05;3.40;;;;;;;15.13;100.00;99909.41;5095447;28;20231;-49
2023/08/02 02:13:17;;;;;;;;;;;;;;;15.22;100.00;99915.59;5103088;28;20020;-49
2023/08/02 02:15:42;;;;;;;8.18;4.00;;;;;;;15.12;100.00;99915.78;5093024;28;19911;-50
2023/08/02 02:18:07;;;;;;;7.30;3.50;;;;;;;15.11;100.00;99903.38;5098730;28;20029;-52
2023/08/02 02:20:32;;;;;;;14.98;3.70;;;;;;;15.10;100.00;99888.34;5096591;28;20012;-49
2023/08/02 02:22:58;;;;;;;7.30;3.25;;;;;;;15.08;100.00;99882.31;5101529;28;20032;-51
2023/08/02 02:25:23;;;;;;;10.88;3.45;;;;;;;15.10;100.00;99864.25;5101816;28;20016;-51
2023/08/02 02:27:48;;;;;;;7.85;3.17;;;;;;;15.08;100.00;99870.81;5099090;28;20032;-49
2023/08/02 02:30:14;;;;;;;9.05;3.58;;;;;;;15.09;100.00;99856.44;5097948;28;20023;-52
2023/08/02 02:32:39;;;;;;;7.43;3.25;;;;;;;15.06;100.00;99846.91;5092275;28;20489;-49
2023/08/02 02:35:05;;;;;;;6.65;3.20;;;;;;;15.05;100.00;99847.06;5101197;28;20036;-49
2023/08/02 02:37:30;;;;;;;9.27;3.70;;;;;;;15.05;100.00;99857.78;5099704;28;20024;-52
2023/08/02 02:39:56;;;;;;;6.95;3.65;;;;;;;15.03;100.00;99852.59;5100640;27;20028;-50
2023/08/02 02:42:21;;;;;;;10.15;3.83;;;;;;;15.05;100.00;99855.09;5098648;28;20047;-50
2023/08/02 02:44:46;;;;;;;7.60;3.67;;;;;;;15.06;100.00;99843.41;5097011;28;20047;-49
2023/08/02 02:47:12;;;;;;;11.93;3.50;;;;;;;15.04;100.00;99834.69;5099070;28;20024;-52
2023/08/02 02:49:37;;;;;;;7.65;3.10;;;;;;;15.04;100.00;99848.94;5098222;28;20552;-50
2023/08/02 02:52:03;;;;;;;8.32;3.42;;;;;;;15.05;100.00;99853.25;5100732;28;20078;-52
2023/08/02 02:54:29;;;;;;;11.23;3.60;;;;;;;15.07;100.00;99851.25;5102081;28;20449;-49
2023/08/02 02:56:54;;;;;;;6.43;3.40;;;;;;;15.08;100.00;99849.41;5099384;28;20075;-50
2023/08/02 02:59:19;;;;;;;8.38;3.40;;;;;;;15.11;100.00;99835.69;5096733;28;20101;-50
2023/08/02 03:01:45;;;;;;;7.85;3.72;;;;;;;15.10;100.00;99832.16;5100366;28;20073;-50
2023/08/02 03:04:10;;;;;;;6.93;3.38;;;;;;;15.10;100.00;99834.84;5099866;28;20440;-51
2023/08/02 03:06:35;;;;;;;5.20;2.80;;;;;;;15.13;100.00;99825.66;5097905;28;20431;-50
2023/08/02 03:09:00;;;;;;;5.88;3.00;;;;;;;15.14;100.00;99800.59;5099364;28;20032;-50
2023/08/02 03:11:26;;;;;;;7.35;3.47;;;;;;;15.11;100.00;99784.88;5093344;28;20020;-49
2023/08/02 03:13:51;;;;;;;6.47;3.42;;;;;;;15.13;100.00;99775.66;5095715;28;20047;-51
2023/08/02 03:16:16;;;;;;;7.85;3.75;;;;;;;15.13;100.00;99777.50;5098648;28;20028;-50
2023/08/02 03:18:42;;;;;;;6.50;3.10;;;;;;;15.10;100.00;99767.97;5096436;28;20024;-50
2023/08/02 03:21:07;;;;;;;4.82;3.40;;;;;;;15.09;100.00;99765.50;5096559;28;20055;-50
2023/08/02 03:23:35;;;;;;;6.20;3.25;;;;;;;15.11;100.00;99758.97;5099334;28;20382;-49
2023/08/02 03:26:01;;;;;;;5.25;2.83;;;;;;;15.10;100.00;99751.94;5090116;28;20058;-49
2023/08/02 03:28:26;;;;;;;6.22;3.00;;;;;;;15.12;100.00;99749.09;5099174;28;20051;-49
2023/08/02 03:30:55;;;;;;;11.20;3.60;;;;;;;15.12;100.00;99741.91;5099620;28;20094;-49
2023/08/02 03:33:20;;;;;;;10.75;3.58;;;;;;;15.12;100.00;99752.63;5098093;28;20110;-49
2023/08/02 03:35:45;;;;;;;7.50;3.22;;;;;;;15.12;100.00;99749.94;5097915;28;20118;-49
2023/08/02 03:38:10;;;;;;;6.22;3.30;;;;;;;15.14;100.00;99752.44;5099502;28;20358;-51
2023/08/02 03:40:36;;;;;;;5.65;3.05;;;;;;;15.13;100.00;99740.91;5097466;28;20372;-50
2023/08/02 03:43:01;;;;;;;6.63;3.17;;;;;;;15.15;100.00;99728.22;5101122;28;20067;-50
2023/08/02 03:45:26;;;;;;;6.15;3.50;;;;;;;15.17;100.00;99728.00;5095127;28;20069;-49
2023/08/02 03:47:52;;;;;;;8.10;3.58;;;;;;;15.15;100.00;99727.34;5099537;28;20027;-50
2023/08/02 03:50:17;;;;;;;5.60;3.10;;;;;;;15.14;100.00;99718.50;5095756;28;20020;-50
2023/08/02 03:52:43;;;;;;;6.45;3.65;;;;;;;15.14;100.00;99709.66;5098226;28;20027;-49
2023/08/02 03:55:08;;;;;;;8.32;3.72;;;;;;;15.15;100.00;99705.94;5099142;28;20085;-49
2023/08/02 03:57:33;;;;;;;5.47;3.70;;;;;;;15.15;100.00;99703.28;5091795;28;20040;-52
2023/08/02 03:59:59;;;;;;;7.90;3.65;;;;;;;15.15;100.00;99693.44;5100113;28;20020;-49
2023/08/02 04:02:24;;;;;;;7.00;3.80;;;;;;;15.15;100.00;99685.41;5102468;28;20024;-49
2023/08/02 04:04:49;;;;;;;5.70;3.40;;;;;;;15.15;100.00;99679.22;5095771;28;20088;-50
2023/08/02 04:07:15;;;;;;;5.63;3.30;;;;;;;15.13;100.00;99674.03;5097170;28;20051;-50
2023/08/02 04:09:40;;;;;;;7.53;4.07;;;;;;;15.13;100.00;99659.84;5095385;28;20024;-49
2023/08/02 04:12:06;;;;;;;10.10;4.10;;;;;;;15.12;100.00;99667.03;5096955;28;20024;-49
2023/08/02 04:14:31;;;;;;;9.00;3.50;;;;;;;15.12;100.00;99655.50;5095195;28;20030;-49
2023/08/02 04:16:57;;;;;;;8.23;3.70;;;;;;;15.12;100.00;99647.47;5097247;28;20027;-52
2023/08/02 04:19:22;;;;;;;10.13;4.00;;;;;;;15.13;100.00;99641.13;5097870;28;20362;-51
2023/08/02 04:21:48;;;;;;;8.93;3.92;;;;;;;15.11;100.00;99643.97;5095940;28;20527;-49
2023/08/02 04:24:13;;;;;;;9.45;4.25;;;;;;;15.11;100.00;99640.47;5097651;28;20036;-49
2023/08/02 04:26:38;;;;;;;9.68;4.45;;;;;;;15.11;100.00;99629.78;5097071;28;20020;-50
2023/08/02 04:29:04;;;;;;;8.25;3.92;;;;;;;15.11;100.00;99619.06;5097074;28;20028;-52
2023/08/02 04:31:29;;;;;;;9.20;4.18;;;;;;;15.12;100.00;99610.03;5094765;28;20016;-50
2023/08/02 04:33:55;;;;;;;7.90;4.10;;;;;;;15.11;100.00;99597.69;5094515;28;20440;-49
2023/08/02 04:36:21;;;;;;;9.23;4.18;;;;;;;15.09;100.00;99599.72;5094967;28;20039;-49
2023/08/02 04:38:46;;;;;;;9.57;4.30;;;;;;;15.13;100.00;99596.47;5095252;28;20385;-51
2023/08/02 04:41:16;;;;;;;7.63;4.40;;;;;;;15.13;100.00;99598.31;5090892;28;20023;-50
2023/08/02 04:43:42;;;;;;;8.60;4.45;;;;;;;15.14;100.00;99583.97;5092123;28;20036;-49
2023/08/02 04:46:07;;;;;;;7.40;3.78;;;;;;;15.14;100.00;99568.72;5095476;28;20511;-50
2023/08/02 04:48:32;;;;;;;7.90;4.10;;;;;;;15.15;100.00;99550.84;5094922;28;20016;-49
2023/08/02 04:50:58;;;;;;;7.97;4.30;;;;;;;15.16;100.00;99539.97;5100101;28;20028;-49
2023/08/02 04:53:23;;;;;;;6.25;4.25;;;;;;;15.18;100.00;99551.31;5092871;28;20020;-50
2023/08/02 04:55:48;;;;;;;8.27;4.00;;;;;;;15.21;100.00;99539.44;5099359;28;20019;-49
2023/08/02 04:58:14;;;;;;;7.57;4.70;;;;;;;15.20;100.00;99548.44;5093418;28;20020;-50
2023/08/02 05:00:39;;;;;;;6.40;4.50;;;;;;;15.20;100.00;99536.94;5097896;28;20039;-51
2023/08/02 05:03:05;;;;;;;9.50;4.60;;;;;;;15.22;100.00;99529.56;5098706;28;20117;-50
2023/08/02 05:05:31;;;;;;;9.60;4.63;;;;;;;15.23;100.00;99528.56;5100981;28;20035;-51
2023/08/02 05:07:56;;;;;;;6.55;4.07;;;;;;;15.19;100.00;99517.38;5104271;28;20432;-51
2023/08/02 05:10:21;;;;;;;7.28;4.28;;;;;;;15.21;100.00;99526.06;5100837;28;20032;-51
2023/08/02 05:12:47;;;;;;;8.15;4.30;;;;;;;15.21;100.00;99527.91;5097925;28;20024;-50
2023/08/02 05:15:12;;;;;;;6.78;4.35;;;;;;;15.18;100.00;99521.88;5096825;28;20028;-50
2023/08/02 05:17:37;;;;;;;8.63;4.45;;;;;;;15.18;100.00;99518.38;5099362;28;20023;-50
2023/08/02 05:20:03;;;;;;;8.30;4.70;;;;;;;15.18;100.00;99505.00;5099465;28;20031;-54
2023/08/02 05:22:31;;;;;;;6.32;4.60;;;;;;;15.16;100.00;99491.00;5097405;28;20020;-50
2023/08/02 05:24:56;;;;;;;5.75;4.38;;;;;;;15.17;100.00;99500.66;5101994;28;20052;-51
2023/08/02 05:27:22;;;;;;;8.43;4.90;;;;;;;15.14;100.00;99493.84;5101953;28;20062;-50
2023/08/02 05:29:47;;;;;;;6.18;4.75;;;;;;;15.12;100.00;99476.31;5100331;28;20031;-52
2023/08/02 05:32:12;;;;;;;9.40;5.03;;;;;;;15.11;100.00;99469.31;5103764;28;20024;-52
2023/08/02 05:34:38;;;;;;;7.05;4.65;;;;;;;15.09;100.00;99456.13;5102007;28;20039;-50
2023/08/02 05:37:03;;;;;;;7.47;4.45;;;;;;;15.08;100.00;99442.94;5096998;28;20039;-52
2023/08/02 05:39:29;;;;;;;7.13;4.60;;;;;;;15.07;100.00;99444.78;5100165;28;20512;-51
2023/08/02 05:41:54;;;;;;;4.80;4.30;;;;;;;15.05;100.00;99436.09;5097036;28;20532;-50
2023/08/02 05:44:19;;;;;;;6.43;4.30;;;;;;;15.06;100.00;99443.13;5101411;28;20493;-50
2023/08/02 05:46:45;;;;;;;6.28;3.97;;;;;;;15.05;100.00;99435.25;5101537;28;20107;-49
2023/08/02 05:49:10;;;;;;;8.35;4.63;;;;;;;15.05;100.00;99430.75;5100895;28;20083;-51
2023/08/02 05:51:35;;;;;;;7.47;4.47;;;;;;;15.05;100.00;99425.41;5100125;28;20023;-50
2023/08/02 05:54:01;;;;;;;6.78;4.38;;;;;;;15.03;100.00;99416.72;5097796;28;20435;-50
2023/08/02 05:56:26;;;;;;;6.78;4.22;;;;;;;15.06;100.00;99415.53;5099425;28;20526;-50
2023/08/02 05:58:51;;;;;;;6.65;4.35;;;;;;;15.05;100.00;99401.31;5100952;28;20084;-52
2023/08/02 06:01:17;;;;;;;5.25;4.28;;;;;;;15.05;100.00;99381.78;5095523;28;20488;-49
2023/08/02 06:03:42;;;;;;;6.53;3.67;;;;;;;15.06;100.00;99367.41;5091664;28;20028;-53
2023/08/02 06:06:07;;;;;;;5.80;3.50;;;;;;;15.07;100.00;99366.38;5094489;28;20016;-51
2023/08/02 06:08:33;;;;;;;4.82;3.63;;;;;;;15.07;100.00;99358.38;5093187;28;20437;-50
2023/08/02 06:11:00;;;;;;;4.35;3.30;;;;;;;15.09;100.00;99349.16;5089739;28;20485;-52
2023/08/02 06:13:26;;;;;;;3.70;3.40;;;;;;;15.08;100.00;99350.16;5091384;28;20492;-50
2023/08/02 06:15:51;;;;;;;4.95;3.63;;;;;;;15.08;100.00;99339.47;5092875;28;20126;-51
2023/08/02 06:18:17;;;;;;;5.10;3.60;;;;;;;15.09;100.00;99330.44;5095526;28;20397;-50
2023/08/02 06:20:42;;;;;;;6.13;3.60;;;;;;;15.11;100.00;99330.25;5091599;28;20024;-51
2023/08/02 06:23:07;;;;;;;4.60;3.20;;;;;;;15.11;100.00;99322.25;5093681;28;20026;-52
2023/08/02 06:25:32;;;;;;;3.40;3.10;;;;;;;15.13;100.00;99317.53;5094379;28;20039;-53
2023/08/02 06:27:58;;;;;;;4.95;3.00;;;;;;;15.14;100.00;99313.84;5090389;28;20063;-51
2023/08/02 06:30:23;;;;;;;3.75;3.13;;;;;;;15.14;100.00;99301.28;5095869;28;20122;-50
2023/08/02 06:32:48;;;;;;;3.28;3.00;;;;;;;15.16;100.00;99295.75;5091203;28;20024;-49
2023/08/02 06:35:14;;;;;;;4.47;3.20;;;;;;;15.18;100.00;99291.06;5098773;28;20487;-51
2023/08/02 06:37:39;;;;;;;4.03;3.17;;;;;;;15.19;100.00;99284.69;5099741;28;20071;-50
2023/08/02 06:40:05;;;;;;;4.10;2.72;;;;;;;15.19;100.00;99279.34;5092526;28;20020;-50
2023/08/02 06:42:30;;;;;;;5.15;3.28;;;;;;;15.19;100.00;99274.00;5097663;28;20035;-51
2023/08/02 06:44:57;;;;;;;3.35;3.00;;;;;;;15.17;100.00;99270.66;5095531;28;20024;-50
2023/08/02 06:47:22;;;;;;;2.80;2.60;;;;;;;15.19;100.00;99260.63;5097982;28;20465;-51
2023/08/02 06:49:48;;;;;;;3.40;2.80;;;;;;;15.21;100.00;99247.06;5095620;28;20115;-52
2023/08/02 06:52:13;;;;;;;3.60;3.08;;;;;;;15.24;100.00;99235.97;5097504;28;20028;-50
2023/08/02 06:54:38;;;;;;;4.50;2.88;;;;;;;15.24;100.00;99239.50;5089935;28;20485;-51
2023/08/02 06:57:04;;;;;;;2.97;2.67;;;;;;;15.25;100.00;99225.09;5100501;28;20484;-56
2023/08/02 06:59:29;;;;;;;3.25;2.70;;;;;;;15.26;100.00;99221.41;5095087;28;20376;-53
2023/08/02 07:01:56;;;;;;;3.00;2.72;;;;;;;15.27;100.00;99220.41;5097683;28;20023;-53
2023/08/02 07:04:21;;;;;;;3.25;2.53;;;;;;;15.28;100.00;99213.19;5094291;28;20032;-54
2023/08/02 07:06:47;;;;;;;2.83;2.63;;;;;;;15.28;100.00;99197.16;5099068;28;20435;-54
2023/08/02 07:09:14;;;;;;;3.47;2.55;;;;;;;15.31;100.00;99200.28;5096214;28;20489;-53
2023/08/02 07:11:39;;;;;;;4.18;2.40;;;;;;;15.32;100.00;99199.28;5097526;28;20039;-53
2023/08/02 07:14:04;;;;;;;2.80;2.60;;;;;;;15.32;100.00;99196.59;5096291;28;20379;-53
2023/08/02 07:16:30;;;;;;;2.60;2.40;;;;;;;15.33;100.00;99187.53;5094672;28;20404;-53
2023/08/02 07:18:55;;;;;;;2.63;2.33;;;;;;;15.35;100.00;99201.56;5099648;28;20031;-53
2023/08/02 07:21:20;;;;;;;4.38;2.30;;;;;;;15.36;100.00;99186.34;5097871;28;20053;-52
2023/08/02 07:23:46;;;;;;;3.88;2.20;;;;;;;15.36;100.00;99183.66;5094455;28;20078;-53
2023/08/02 07:26:11;;;;;;;4.50;2.55;;;;;;;15.39;100.00;99177.09;5098484;28;20028;-54
2023/08/02 07:28:36;;;;;;;2.72;2.53;;;;;;;15.41;100.00;99177.75;5097856;28;20028;-54
2023/08/02 07:31:06;;;;;;;3.17;2.10;;;;;;;15.45;100.00;99174.47;5092884;28;20354;-55
2023/08/02 07:33:31;;;;;;;2.53;2.25;;;;;;;15.49;100.00;99169.59;5096887;28;20031;-53
2023/08/02 07:35:56;;;;;;;5.45;2.47;;;;;;;15.48;100.00;99163.41;5101800;28;20469;-52
2023/08/02 07:38:22;;;;;;;3.53;2.50;;;;;;;15.50;100.00;99156.03;5100067;28;20055;-53
2023/08/02 07:40:47;;;;;;;2.22;2.03;;;;;;;15.53;100.00;99154.81;5099292;28;20448;-53
2023/08/02 07:43:13;;;;;;;3.40;2.58;;;;;;;15.56;100.00;99150.94;5088946;28;20044;-55
2023/08/02 07:45:38;;;;;;;2.50;2.30;;;;;;;15.61;100.00;99138.63;5088976;28;20008;-54
2023/08/02 07:48:04;;;;;;;2.30;2.20;;;;;;;15.64;100.00;99137.44;5089546;28;20531;-53
2023/08/02 07:50:29;;;;;;;5.00;2.42;;;;;;;15.68;100.00;99141.38;5088582;28;20473;-53
2023/08/02 07:52:55;;;;;;;2.42;2.22;;;;;;;15.72;100.00;99131.91;5095839;28;20377;-53
2023/08/02 07:55:20;;;;;;;2.70;2.50;;;;;;;15.79;100.00;99115.97;5096469;28;20066;-55
2023/08/02 07:57:45;;;;;;;4.22;2.28;;;;;;;15.81;100.00;99113.91;5098249;28;20036;-55
2023/08/02 08:00:11;;;;;;;3.72;2.55;;;;;;;15.85;100.00;99115.16;5099154;28;20458;-53
2023/08/02 08:02:38;;;;;;;2.67;2.20;;;;;;;15.88;100.00;99106.75;5097655;28;20051;-54
2023/08/02 08:05:03;;;;;;;2.50;1.98;;;;;;;15.91;100.00;99107.19;5095375;28;20024;-55
2023/08/02 08:07:28;;;;;;;2.17;2.08;;;;;;;15.96;100.00;99111.97;5098647;28;20055;-56
2023/08/02 08:09:54;;;;;;;2.30;2.10;;;;;;;16.01;100.00;99117.56;5096157;28;20043;-56
2023/08/02 08:12:19;;;;;;;2.28;2.00;;;;;;;16.05;100.00;99105.44;5094847;28;20499;-56
2023/08/02 08:14:44;;;;;;;2.42;2.08;;;;;;;16.08;100.00;99102.34;5098328;28;20034;-56
2023/08/02 08:17:10;;;;;;;1.92;1.80;;;;;;;16.13;100.00;99103.63;5090815;28;20055;-56
2023/08/02 08:19:35;;;;;;;2.35;1.85;;;;;;;16.18;100.00;99093.97;5094460;28;20465;-56
2023/08/02 08:22:01;;;;;;;2.20;1.70;;;;;;;16.23;100.00;99088.03;5100544;28;20025;-56
2023/08/02 08:24:26;;;;;;;2.13;1.67;;;;;;;16.24;100.00;99085.16;5061622;28;20032;-55
2023/08/02 08:26:55;;;;;;;3.10;1.85;;;;;;;16.28;100.00;99094.44;5089341;28;20038;-55
2023/08/02 08:29:20;;;;;;;2.03;1.80;;;;;;;16.34;100.00;99095.50;5096644;28;20074;-56
2023/08/02 08:31:45;;;;;;;1.90;1.55;;;;;;;16.39;100.00;99089.56;5088499;28;20265;-53
2023/08/02 08:34:13;;;;;;;2.22;1.52;;;;;;;16.44;100.00;99092.47;5090508;28;20610;-53
2023/08/02 08:36:38;;;;;;;1.63;1.52;;;;;;;16.51;100.00;99087.16;5093519;28;20024;-53
2023/08/02 08:39:04;;;;;;;4.05;1.70;;;;;;;16.56;100.00;99088.19;5066050;28;20111;-53
2023/08/02 08:41:29;;;;;;;2.17;1.50;;;;;;;16.61;100.00;99079.56;5095348;28;20123;-53
2023/08/02 08:43:54;;;;;;;1.98;1.67;;;;;;;16.69;100.00;99087.44;5101902;28;20044;-52
2023/08/02 08:46:20;;;;;;;10.60;2.53;;;;;;;16.75;100.00;99086.63;5092713;28;20033;-55
2023/08/02 08:48:48;;;;;;;2.15;1.80;;;;;;;16.82;100.00;99073.25;5098316;28;20481;-52
2023/08/02 08:51:16;;;;;;;2.10;1.58;;;;;;;16.86;100.00;99077.19;5092242;28;20393;-55
2023/08/02 08:53:44;;;;;;;2.30;2.08;;;;;;;16.91;100.00;99066.69;5093326;28;20024;-53
2023/08/02 08:56:10;;;;;;;2.13;1.90;;;;;;;16.99;100.00;99063.00;5096362;28;20026;-54
2023/08/02 08:58:37;;;;;;;2.22;2.03;;;;;;;17.10;100.00;99069.63;5095636;28;20107;-53
2023/08/02 09:01:04;;;;;;;2.85;1.77;;;;;;;17.18;100.00;99062.19;5096519;28;20037;-51
2023/08/02 09:03:30;;;;;;;2.58;2.03;;;;;;;17.28;100.00;99058.28;5100182;28;20396;-53
2023/08/02 09:06:05;;;;;;;1.85;1.75;;;;;;;17.38;100.00;99043.44;5100605;28;20032;-53
2023/08/02 09:08:43;;;;;;;2.00;1.90;;;;;;;17.49;100.00;99043.88;5092905;28;20020;-53
2023/08/02 09:11:09;;;;;;;1.80;1.70;;;;;;;17.59;100.00;99043.47;5097094;28;20048;-52
2023/08/02 09:13:35;;;;;;;1.90;1.70;;;;;;;17.66;100.00;99037.03;5097743;28;20028;-53
2023/08/02 09:16:03;;;;;;;1.80;1.70;;;;;;;17.78;100.00;99036.41;5094258;28;20426;-55
2023/08/02 09:18:49;;;;;;;2.33;2.13;;;;;;;17.88;100.00;99031.44;5096935;28;20020;-52
2023/08/02 09:21:20;;;;;;;1.73;1.67;;;;;;;17.96;100.00;99019.66;5098493;28;20294;-53
2023/08/02 09:23:56;;;;;;;2.47;1.60;;;;;;;18.07;100.00;99016.34;5098624;28;20027;-52
2023/08/02 09:26:21;;;;;;;2.75;1.83;;;;;;;18.12;100.00;99014.66;5094922;28;20038;-52
2023/08/02 09:29:01;;;;;;;2.10;2.00;;;;;;;18.21;100.00;99014.44;5099858;28;20031;-52
2023/08/02 09:31:28;;;;;;;1.60;1.60;;;;;;;18.25;100.00;99002.19;5095739;28;20548;-52
2023/08/02 09:33:55;;;;;;;1.85;1.75;;;;;;;18.34;100.00;99003.63;5095624;28;20024;-52
2023/08/02 09:36:30;;;;;;;2.33;1.60;;;;;;;18.39;100.00;99009.19;5094744;28;20030;-53
2023/08/02 09:39:16;;;;;;;1.75;1.65;;;;;;;18.47;100.00;99006.25;5096165;28;20029;-53
2023/08/02 09:41:42;;;;;;;1.70;1.60;;;;;;;18.54;100.00;98992.78;5092837;28;20028;-56
2023/08/02 09:44:08;;;;;;;1.30;1.30;;;;;;;18.78;100.00;98990.34;5102909;28;20045;-52
2023/08/02 09:46:35;;;;;;;2.25;1.25;;;;;;;18.94;100.00;98992.56;5095002;28;20115;-52
2023/08/02 09:49:16;;;;;;;1.40;1.40;;;;;;;19.07;100.00;98997.03;5098819;28;20034;-56
2023/08/02 09:51:43;;;;;;;2.92;1.20;;;;;;;19.25;100.00;98979.28;5096852;28;20054;-54
2023/08/02 09:54:09;;;;;;;1.65;1.25;;;;;;;19.36;100.00;98976.69;5099184;28;20031;-56
2023/08/02 09:56:36;;;;;;;1.05;1.05;;;;;;;19.46;100.00;98983.47;5092960;28;20085;-56
2023/08/02 09:59:03;;;;;;;1.23;1.17;;;;;;;19.54;100.00;98986.69;5096544;28;20028;-55
2023/08/02 10:01:30;;;;;;;1.45;1.17;;;;;;;19.60;100.00;98990.34;5098037;28;20024;-54
2023/08/02 10:03:58;;;;;;;1.02;1.00;;;;;;;19.56;100.00;98984.59;5098693;28;20027;-55
2023/08/02 10:06:29;;;;;;;4.03;0.98;;;;;;;19.60;100.00;98979.56;5095364;28;20020;-51
2023/08/02 10:09:04;;;;;;;1.25;1.15;;;;;;;19.71;100.00;98976.16;5095877;28;20450;-55
2023/08/02 10:11:49;;;;;;;2.60;0.95;;;;;;;19.84;100.00;98972.53;5093737;28;20024;-53
2023/08/02 10:14:15;;;;;;;2.80;1.00;;;;;;;20.04;100.00;98972.31;5094573;28;20457;-57
2023/08/02 10:16:42;;;;;;;2.75;1.10;;;;;;;20.13;100.00;98948.56;5102276;28;20089;-55
2023/08/02 10:19:08;;;;;;;1.05;0.98;;;;;;;20.20;100.00;98946.63;5097470;28;20024;-56
2023/08/02 10:21:34;;;;;;;0.85;0.82;;;;;;;20.39;100.00;98933.91;5094944;28;20034;-57
2023/08/02 10:24:00;;;;;;;1.95;1.10;;;;;;;20.62;100.00;98940.47;5099163;28;20039;-57
2023/08/02 10:26:29;;;;;;;0.80;0.80;;;;;;;20.73;100.00;98926.19;5084161;28;20120;-57
2023/08/02 10:28:56;;;;;;;1.00;0.98;;;;;;;20.81;100.00;98928.56;5097080;28;20430;-57
2023/08/02 10:31:22;;;;;;;1.17;0.93;;;;;;;20.84;100.00;98941.59;5091539;28;20023;-57
2023/08/02 10:33:47;;;;;;;1.00;0.95;;;;;;;20.89;100.00;98922.00;5098257;28;20106;-57
2023/08/02 10:36:13;;;;;;;0.95;0.95;;;;;;;20.93;100.00;98920.47;5090526;28;20543;-57
2023/08/02 10:38:38;;;;;;;1.20;1.20;;;;;;;20.94;100.00;98916.75;5096834;28;20027;-58
2023/08/02 10:41:05;;;;;;;1.00;1.00;;;;;;;20.94;100.00;98910.53;5092842;28;20039;-57
2023/08/02 10:43:31;;;;;;;1.00;1.00;;;;;;;20.91;100.00;98897.50;5095034;28;20774;-55
2023/08/02 10:46:27;;;;;;;1.27;1.27;;;;;;;20.94;100.00;98905.13;5094554;28;20136;-54
2023/08/02 10:49:12;;;;;;;1.27;1.27;;;;;;;20.87;100.00;98914.16;5076015;28;20447;-56
2023/08/02 10:51:38;;;;;;;1.45;1.30;;;;;;;20.73;100.00;98926.19;5087883;28;20036;-56
2023/08/02 10:54:18;;;;;;;2.67;1.10;;;;;;;20.72;100.00;98915.63;5091389;28;20084;-54
2023/08/02 10:56:53;;;;;;;2.53;1.60;;;;;;;20.63;100.00;98899.81;5088875;28;20103;-55
2023/08/02 10:59:24;;;;;;;1.52;1.42;;;;;;;20.57;100.00;98880.97;5093627;28;20482;-57
2023/08/02 11:01:57;;;;;;;2.00;1.50;;;;;;;20.56;100.00;98876.66;5095949;28;20039;-58
2023/08/02 11:04:27;;;;;;;1.30;1.20;;;;;;;20.54;100.00;98876.88;5093906;28;20033;-55
2023/08/02 11:06:53;;;;;;;1.30;1.20;;;;;;;20.51;100.00;98880.84;5090626;28;20039;-57
2023/08/02 11:09:29;;;;;;;1.48;1.40;;;;;;;20.49;100.00;98879.44;5094767;28;20098;-58
2023/08/02 11:11:54;;;;;;;1.75;1.63;;;;;;;20.42;100.00;98893.03;5092123;28;20458;-57
2023/08/02 11:14:27;;;;;;;2.40;1.77;;;;;;;20.37;100.00;98875.88;5091377;28;20107;-57
2023/08/02 11:16:53;;;;;;;2.97;1.67;;;;;;;20.31;100.00;98894.63;5091468;28;20389;-58
2023/08/02 11:19:21;;;;;;;2.05;1.70;;;;;;;20.22;100.00;98901.38;5093922;28;20019;-59
2023/08/02 11:21:54;;;;;;;3.15;1.75;;;;;;;20.21;100.00;98890.84;5095803;28;20034;-57